• Join FlightAware (Why Join?)
  • Login
  • US Flag 
01:04AM EDT


 

Airport Tracker/Info


-or-


 

Live Flight TrackerFlight Track Log ✈ N555CP ✈ 15-May-2014 ✈ KFFZ - KACT

Flight Track Log - Related Links

Times and Time Zones

All times are in EDT time to prevent confusion due to time zone crossing. See the N555CP flight status page for this flight to view local times or setup timezone preferences in your user account.

Time Position Orientation Groundspeed Altitude Reporting Facility
EDT Latitude Longitude Course Direction KTS MPH feet Rate Location/Type
10:19AM 33.4667 -111.7167 90° East 110 127 1,600  Level Phoenix TRACON
10:19AM 33.4667 -111.7000 90° East 109 125 2,300 1,260 Climbing Phoenix TRACON
10:20AM 33.4333 -111.7167 203° Southwest 138 159 3,400 1,020 Climbing Phoenix TRACON
10:21AM 33.4000 -111.7333 203° Southwest 125 144 4,400 900 Climbing Phoenix TRACON
10:22AM 33.3833 -111.7000 121° Southeast 109 125 5,400 900 Climbing Phoenix TRACON
10:24AM 33.3622 -111.6658 126° Southeast 117 135 6,400 840 Climbing Albuquerque Center
10:25AM 33.3425 -111.6294 123° Southeast 126 145 7,200 840 Climbing Albuquerque Center
10:26AM 33.3208 -111.5928 125° Southeast 131 151 8,200 780 Climbing Albuquerque Center
10:27AM 33.3014 -111.5522 120° Southeast 137 158 8,900 660 Climbing Albuquerque Center
10:28AM 33.2811 -111.5089 119° Southeast 145 167 9,600 660 Climbing Albuquerque Center
10:29AM 33.2611 -111.4647 118° Southeast 148 170 10,300 780 Climbing Albuquerque Center
10:30AM 33.2356 -111.4106 119° Southeast 153 176 11,300 780 Climbing Albuquerque Center
10:31AM 33.2144 -111.3628 118° Southeast 158 182 12,000 720 Climbing Albuquerque Center
10:32AM 33.1950 -111.3147 116° Southeast 159 183 12,800 720 Climbing Albuquerque Center
10:33AM 33.1733 -111.2667 118° Southeast 161 185 13,500 600 Climbing Albuquerque Center
10:34AM 33.1564 -111.2147 111° Southeast 165 190 14,100 540 Climbing Albuquerque Center
10:35AM 33.1444 -111.1611 105° East 166 191 14,700 720 Climbing Albuquerque Center
10:36AM 33.1278 -111.0950 107° East 170 196 15,600 720 Climbing Albuquerque Center
10:37AM 33.1122 -111.0406 109° East 172 198 16,200 600 Climbing Albuquerque Center
10:38AM 33.1011 -110.9822 103° East 175 201 16,900 540 Climbing Albuquerque Center
10:39AM 33.0867 -110.9256 107° East 177 204 17,400 480 Climbing Albuquerque Center
10:40AM 33.0728 -110.8669 106° East 178 205 18,000 540 Climbing Albuquerque Center
10:41AM 33.0569 -110.8075 108° East 185 213 18,600 480 Climbing Albuquerque Center
10:42AM 33.0383 -110.7358 107° East 188 216 19,000 180 Climbing Albuquerque Center
10:43AM 33.0203 -110.6664 107° East 209 241 19,000  Level Albuquerque Center
10:44AM 33.0028 -110.5967 107° East 215 247 19,000  Level Albuquerque Center
10:45AM 32.9853 -110.5289 107° East 217 250 19,000  Level Albuquerque Center
10:46AM 32.9681 -110.4603 107° East 217 250 19,000  Level Albuquerque Center
10:47AM 32.9519 -110.3942 106° East 215 247 19,000  Level Albuquerque Center
10:48AM 32.9350 -110.3264 107° East 214 246 19,000  Level Albuquerque Center
10:49AM 32.9142 -110.2433 107° East 215 247 19,000  Level Albuquerque Center
10:50AM 32.8956 -110.1728 107° East 219 252 19,000  Level Albuquerque Center
10:51AM 32.8775 -110.1031 107° East 220 253 19,000  Level Albuquerque Center
10:52AM 32.8600 -110.0347 107° East 220 253 19,000  Level Albuquerque Center
10:53AM 32.8408 -109.9656 108° East 220 253 19,000  Level Albuquerque Center
10:54AM 32.8244 -109.8969 108° East 220 253 19,000  Level Albuquerque Center
10:55AM 32.8212 -109.8928 108° East  Level FlightAware Approximate
10:55AM 32.8028 -109.8147 107° East 219 252 19,000  Level Albuquerque Center
10:57AM 32.7833 -109.7464 109° East 219 252 19,000  Level Albuquerque Center
10:58AM 32.7653 -109.6781 107° East 219 252 19,000  Level Albuquerque Center
10:59AM 32.7458 -109.6086 108° East 219 252 19,000  Level Albuquerque Center
11:00AM 32.7286 -109.5400 107° East 219 252 19,000  Level Albuquerque Center
11:01AM 32.7061 -109.4575 108° East 219 252 19,000  Level Albuquerque Center
11:02AM 32.6869 -109.3867 108° East 220 253 19,000  Level Albuquerque Center
11:03AM 32.6678 -109.3172 108° East 221 254 19,000  Level Albuquerque Center
11:04AM 32.6494 -109.2494 108° East 220 253 19,000  Level Albuquerque Center
11:05AM 32.6311 -109.1803 107° East 220 253 19,000  Level Albuquerque Center
11:06AM 32.6092 -109.0972 107° East 221 254 19,000  Level Albuquerque Center
11:08AM 32.5711 -108.9583 108° East 221 254 19,000  Level Albuquerque Center
11:09AM 32.5525 -108.8897 108° East 221 254 19,000  Level Albuquerque Center
11:10AM 32.5339 -108.8194 107° East 221 254 19,000  Level Albuquerque Center
11:11AM 32.5111 -108.7353 108° East 222 255 19,000  Level Albuquerque Center
11:12AM 32.4917 -108.6650 108° East 222 255 19,000  Level Albuquerque Center
11:13AM 32.4728 -108.5953 108° East 222 255 19,000  Level Albuquerque Center
11:14AM 32.4542 -108.5239 107° East 224 258 19,000  Level Albuquerque Center
11:15AM 32.4353 -108.4536 108° East 224 258 19,000  Level Albuquerque Center
11:16AM 32.4136 -108.3786 109° East 224 258 19,000  Level Albuquerque Center
11:17AM 32.3964 -108.3078 106° East 224 258 19,000  Level Albuquerque Center
11:18AM 32.3761 -108.2383 109° East 224 258 19,000  Level Albuquerque Center
11:19AM 32.3528 -108.1544 108° East 224 258 19,000  Level Albuquerque Center
11:20AM 32.3333 -108.0842 108° East 224 258 19,000  Level Albuquerque Center
11:21AM 32.3133 -108.0131 108° East 226 260 19,000  Level Albuquerque Center
11:22AM 32.2928 -107.9417 109° East 227 261 19,000  Level Albuquerque Center
11:23AM 32.2719 -107.8700 109° East 229 264 19,000  Level Albuquerque Center
11:24AM 32.2519 -107.7983 108° East 229 264 19,000  Level Albuquerque Center
11:26AM 32.2286 -107.7131 108° East 229 264 19,000  Level Albuquerque Center
11:27AM 32.2089 -107.6422 108° East 229 264 19,000  Level Albuquerque Center
11:28AM 32.1897 -107.5717 108° East 229 264 19,000  Level Albuquerque Center
11:29AM 32.1692 -107.5025 109° East 228 262 19,000  Level Albuquerque Center
11:30AM 32.1492 -107.4319 108° East 228 262 19,000  Level Albuquerque Center
11:31AM 32.1261 -107.3478 108° East 228 262 19,000  Level Albuquerque Center
11:32AM 32.1067 -107.2781 108° East 227 261 19,000  Level Albuquerque Center
11:33AM 32.0864 -107.2089 109° East 227 261 19,000  Level Albuquerque Center
11:34AM 32.0658 -107.1381 109° East 227 261 19,000  Level Albuquerque Center
11:35AM 32.0461 -107.0667 108° East 227 261 19,000  Level Albuquerque Center
11:36AM 32.0222 -106.9811 108° East 228 262 19,000  Level Albuquerque Center
11:37AM 32.0006 -106.9089 109° East 230 265 19,000  Level Albuquerque Center
11:38AM 31.9803 -106.8372 108° East 231 266 19,000  Level Albuquerque Center
11:39AM 31.9589 -106.7647 109° East 231 266 19,000  Level Albuquerque Center
11:40AM 31.9342 -106.6814 109° East 232 267 19,000  Level Albuquerque Center
11:41AM 31.9131 -106.6075 109° East 232 267 19,000  Level Albuquerque Center
11:42AM 31.8917 -106.5347 109° East 232 267 19,000  Level Albuquerque Center
11:43AM 31.8725 -106.4628 107° East 233 268 19,000  Level Albuquerque Center
11:44AM 31.8511 -106.3908 109° East 233 268 19,000  Level Albuquerque Center
11:45AM 31.8297 -106.3208 110° East 232 267 19,000  Level Albuquerque Center
11:46AM 31.8189 -106.2400 99° East 218 251 19,000  Level Albuquerque Center
11:47AM 31.8219 -106.1644 87° East 216 249 19,000  Level Albuquerque Center
11:48AM 31.8253 -106.0922 87° East 217 250 19,000  Level Albuquerque Center
11:49AM 31.8286 -106.0150 87° East 218 251 19,000  Level Albuquerque Center
11:50AM 31.8308 -105.9428 88° East 219 252 19,000  Level Albuquerque Center
11:51AM 31.8339 -105.8661 87° East 219 252 19,000  Level Albuquerque Center
11:52AM 31.8375 -105.7953 87° East 219 252 19,000  Level Albuquerque Center
11:53AM 31.8397 -105.7244 88° East 218 251 19,000  Level Albuquerque Center
11:54AM 31.8436 -105.6475 87° East 219 252 19,000  Level Albuquerque Center
11:56AM 31.8458 -105.5764 88° East 219 252 19,000  Level Albuquerque Center
11:57AM 31.8494 -105.4983 87° East 220 253 19,000  Level Albuquerque Center
11:58AM 31.8506 -105.4258 89° East 220 253 19,000  Level Albuquerque Center
11:59AM 31.8556 -105.3481 86° East 221 254 19,000  Level Albuquerque Center
12:00PM 31.8594 -105.2856 86° East 221 254 19,000  Level Albuquerque Center
12:01PM 31.8603 -105.1997 89° East 221 254 19,000  Level Albuquerque Center
12:02PM 31.8631 -105.1269 87° East 221 254 19,000  Level Albuquerque Center
12:03PM 31.8664 -105.0531 87° East 222 255 19,000  Level Albuquerque Center
12:04PM 31.8708 -104.9797 86° East 223 257 19,000  Level Albuquerque Center
12:05PM 31.8708 -104.9078 90° East 223 257 19,000  Level Albuquerque Center
12:06PM 31.8728 -104.8350 88° East 223 257 19,000  Level Albuquerque Center
12:07PM 31.8808 -104.7439 84° East 225 259 19,000  Level Albuquerque Center
12:08PM 31.8850 -104.6717 86° East 231 266 19,000  Level Albuquerque Center
12:09PM 31.8858 -104.5967 89° East 231 266 19,000  Level Albuquerque Center
12:10PM 31.8889 -104.5214 87° East 231 266 19,000  Level Albuquerque Center
12:11PM 31.8911 -104.4469 88° East 231 266 19,000  Level Albuquerque Center
12:12PM 31.8933 -104.3575 88° East 230 265 19,000  Level Albuquerque Center
12:13PM 31.8967 -104.2836 87° East 230 265 19,000  Level Albuquerque Center
12:14PM 31.8992 -104.2103 88° East 229 264 19,000  Level Albuquerque Center
12:15PM 31.9000 -104.1372 89° East 228 262 19,000  Level Albuquerque Center
12:16PM 31.9025 -104.0628 88° East 228 262 19,000  Level Albuquerque Center
12:17PM 31.9056 -103.9892 87° East 228 262 19,000  Level Albuquerque Center
12:18PM 31.9075 -103.9011 88° East 228 262 19,000  Level Albuquerque Center
12:19PM 31.9125 -103.8356 85° East 210 242 19,000  Level Albuquerque Center
12:20PM 31.9142 -103.7697 88° East 204 235 19,000  Level Albuquerque Center
12:21PM 31.9183 -103.7078 85° East 198 228 19,000  Level Albuquerque Center
12:22PM 31.9208 -103.6464 87° East 192 221 19,000 -600 Level Albuquerque Center
12:24PM 31.9208 -103.5533 90° East 229 264 17,700 -840 Descending Fort Worth Center
12:25PM 31.9214 -103.4747 90° East 242 278 17,200 -840 Descending Fort Worth Center
12:26PM 31.9242 -103.3867 88° East 230 265 16,000 -1,020 Descending Fort Worth Center
12:27PM 31.9267 -103.3139 88° East 227 261 15,100 -900 Descending Fort Worth Center
12:28PM 31.9258 -103.2350 91° East 234 269 14,200 -600 Descending Fort Worth Center
12:29PM 31.9258 -103.1619 90° East 230 265 13,900 -180 Descending Fort Worth Center
12:30PM 31.9289 -103.0978 87° East 206 237 13,900 -300 Level Fort Worth Center
12:31PM 31.9308 -103.0225 88° East 195 224 13,400 -900 Descending Fort Worth Center
12:32PM 31.9278 -102.9492 93° East 217 250 12,100 -1,080 Descending Fort Worth Center
12:33PM 31.9064 -102.8794 110° East 225 259 11,200 -960 Descending Fort Worth Center
12:34PM 31.8869 -102.8103 108° East 225 259 10,200 -1,140 Descending Fort Worth Center
12:35PM 31.8672 -102.7414 109° East 225 259 8,900 -1,140 Descending Fort Worth Center
12:36PM 31.8478 -102.6742 109° East 223 257 7,900 -900 Descending Fort Worth Center
12:37PM 31.8264 -102.5942 107° East 218 251 7,100 -480 Descending Fort Worth Center
12:38PM 31.8136 -102.5333 104° East 201 231 7,000 -60 Descending Fort Worth Center
12:39PM 31.8003 -102.4767 105° East 187 215 7,000  Level Fort Worth Center
12:40PM 31.7875 -102.4189 105° East 186 214 7,100  Climbing Fort Worth Center
12:41PM 31.7731 -102.3639 107° East 182 209 7,000 -120 Descending Fort Worth Center
12:42PM 31.7628 -102.3072 102° East 179 206 6,900 -420 Descending Fort Worth Center
12:43PM 31.7572 -102.2406 96° East 196 226 6,200 -360 Descending Fort Worth Center
12:44PM 31.7522 -102.1658 94° East 195 224 6,200  Level Fort Worth Center
12:45PM 31.7539 -102.1069 88° East 193 222 6,200 -180 Level Fort Worth Center
12:46PM 31.8031 -102.0914 15° North 188 216 5,900 -180 Descending Fort Worth Center
12:47PM 31.8464 -102.0717 21° North 174 200 5,900 -120 Level Fort Worth Center
12:48PM 31.8883 -102.0678 North 178 205 5,700 -540 Descending Fort Worth Center
12:50PM 31.9128 -102.1122 303° West 144 166 4,800 -900 Descending Fort Worth Center
12:51PM 31.9261 -102.1542 291° West 140 161 3,900 -720 Descending Fort Worth Center
12:52PM 31.9375 -102.1892 291° West 139 160 3,400 -540 Descending Fort Worth Center